sensor_id;sensor_type;location;lat;lon;timestamp;pressure;altitude;pressure_sealevel;temperature;humidity
71465;BME280;59274;49.874;9.154;2023-04-26T00:01:16;100465.97;;;2.50;100.00
71465;BME280;59274;49.874;9.154;2023-04-26T00:03:41;100469.13;;;2.44;100.00
71465;BME280;59274;49.874;9.154;2023-04-26T00:06:07;100462.38;;;1.98;100.00
71465;BME280;59274;49.874;9.154;2023-04-26T00:08:38;100458.00;;;1.80;100.00
71465;BME280;59274;49.874;9.154;2023-04-26T00:11:04;100459.38;;;1.69;100.00
71465;BME280;59274;49.874;9.154;2023-04-26T00:13:29;100466.31;;;1.70;100.00
71465;BME280;59274;49.874;9.154;2023-04-26T00:15:54;100466.78;;;2.03;100.00
71465;BME280;59274;49.874;9.154;2023-04-26T00:18:20;100463.69;;;2.18;100.00
71465;BME280;59274;49.874;9.154;2023-04-26T00:20:46;100464.53;;;2.27;100.00
71465;BME280;59274;49.874;9.154;2023-04-26T00:23:11;100462.31;;;2.38;100.00
71465;BME280;59274;49.874;9.154;2023-04-26T00:25:37;100466.75;;;2.33;100.00
71465;BME280;59274;49.874;9.154;2023-04-26T00:28:03;100470.06;;;2.39;100.00
71465;BME280;59274;49.874;9.154;2023-04-26T00:30:28;100473.22;;;2.41;100.00
71465;BME280;59274;49.874;9.154;2023-04-26T00:32:54;100473.09;;;2.55;100.00
71465;BME280;59274;49.874;9.154;2023-04-26T00:35:19;100473.44;;;2.62;100.00
71465;BME280;59274;49.874;9.154;2023-04-26T00:37:45;100475.94;;;2.58;100.00
71465;BME280;59274;49.874;9.154;2023-04-26T00:40:12;100481.94;;;2.64;100.00
71465;BME280;59274;49.874;9.154;2023-04-26T00:42:38;100475.78;;;2.63;100.00
71465;BME280;59274;49.874;9.154;2023-04-26T00:45:05;100479.72;;;2.66;100.00
71465;BME280;59274;49.874;9.154;2023-04-26T00:47:31;100481.78;;;2.60;100.00
71465;BME280;59274;49.874;9.154;2023-04-26T00:49:58;100482.25;;;2.54;100.00
71465;BME280;59274;49.874;9.154;2023-04-26T00:52:23;100482.53;;;2.52;100.00
71465;BME280;59274;49.874;9.154;2023-04-26T00:54:49;100486.66;;;2.58;100.00
71465;BME280;59274;49.874;9.154;2023-04-26T00:57:15;100490.44;;;2.57;100.00
71465;BME280;59274;49.874;9.154;2023-04-26T00:59:41;100492.66;;;2.55;100.00
71465;BME280;59274;49.874;9.154;2023-04-26T01:02:07;100496.28;;;2.59;100.00
71465;BME280;59274;49.874;9.154;2023-04-26T01:04:32;100491.84;;;2.63;100.00
71465;BME280;59274;49.874;9.154;2023-04-26T01:07:00;100494.69;;;2.58;100.00
71465;BME280;59274;49.874;9.154;2023-04-26T01:09:27;100499.13;;;2.54;100.00
71465;BME280;59274;49.874;9.154;2023-04-26T01:11:54;100491.38;;;2.53;100.00
71465;BME280;59274;49.874;9.154;2023-04-26T01:14:22;100496.56;;;2.49;100.00
71465;BME280;59274;49.874;9.154;2023-04-26T01:16:48;100500.03;;;2.50;100.00
71465;BME280;59274;49.874;9.154;2023-04-26T01:19:14;100495.94;;;2.52;100.00
71465;BME280;59274;49.874;9.154;2023-04-26T01:21:41;100495.94;;;2.52;100.00
71465;BME280;59274;49.874;9.154;2023-04-26T01:24:11;100497.00;;;2.34;100.00
71465;BME280;59274;49.874;9.154;2023-04-26T01:26:37;100492.44;;;2.43;100.00
71465;BME280;59274;49.874;9.154;2023-04-26T01:29:21;100497.69;;;2.48;100.00
71465;BME280;59274;49.874;9.154;2023-04-26T01:31:48;100500.97;;;2.45;100.00
71465;BME280;59274;49.874;9.154;2023-04-26T01:34:14;100490.06;;;2.42;100.00
71465;BME280;59274;49.874;9.154;2023-04-26T01:36:40;100487.72;;;2.40;100.00
71465;BME280;59274;49.874;9.154;2023-04-26T01:39:06;100489.72;;;2.34;100.00
71465;BME280;59274;49.874;9.154;2023-04-26T01:41:35;100488.78;;;2.30;100.00
71465;BME280;59274;49.874;9.154;2023-04-26T01:44:00;100486.91;;;2.31;100.00
71465;BME280;59274;49.874;9.154;2023-04-26T01:46:26;100483.44;;;2.30;100.00
71465;BME280;59274;49.874;9.154;2023-04-26T01:48:51;100489.06;;;2.20;100.00
71465;BME280;59274;49.874;9.154;2023-04-26T01:51:17;100476.00;;;2.19;100.00
71465;BME280;59274;49.874;9.154;2023-04-26T01:53:42;100480.31;;;2.06;100.00
71465;BME280;59274;49.874;9.154;2023-04-26T01:56:07;100486.13;;;1.91;100.00
71465;BME280;59274;49.874;9.154;2023-04-26T01:58:33;100493.38;;;1.99;100.00
71465;BME280;59274;49.874;9.154;2023-04-26T02:01:06;100496.53;;;2.01;100.00
71465;BME280;59274;49.874;9.154;2023-04-26T02:03:32;100487.56;;;1.97;100.00
71465;BME280;59274;49.874;9.154;2023-04-26T02:05:57;100489.59;;;2.00;100.00
71465;BME280;59274;49.874;9.154;2023-04-26T02:08:23;100489.31;;;2.02;100.00
71465;BME280;59274;49.874;9.154;2023-04-26T02:10:48;100492.63;;;1.99;100.00
71465;BME280;59274;49.874;9.154;2023-04-26T02:13:14;100494.97;;;2.00;100.00
71465;BME280;59274;49.874;9.154;2023-04-26T02:15:40;100495.81;;;2.09;100.00
71465;BME280;59274;49.874;9.154;2023-04-26T02:18:05;100490.94;;;2.11;100.00
71465;BME280;59274;49.874;9.154;2023-04-26T02:20:31;100491.84;;;2.07;100.00
71465;BME280;59274;49.874;9.154;2023-04-26T02:22:57;100495.63;;;2.06;100.00
71465;BME280;59274;49.874;9.154;2023-04-26T02:25:22;100490.94;;;2.11;100.00
71465;BME280;59274;49.874;9.154;2023-04-26T02:27:49;100498.47;;;2.09;100.00
71465;BME280;59274;49.874;9.154;2023-04-26T02:30:14;100499.56;;;2.08;100.00
71465;BME280;59274;49.874;9.154;2023-04-26T02:32:40;100499.72;;;2.03;100.00
71465;BME280;59274;49.874;9.154;2023-04-26T02:35:05;100495.94;;;2.04;100.00
71465;BME280;59274;49.874;9.154;2023-04-26T02:37:31;100500.00;;;2.02;100.00
71465;BME280;59274;49.874;9.154;2023-04-26T02:39:57;100488.16;;;1.94;100.00
71465;BME280;59274;49.874;9.154;2023-04-26T02:42:23;100498.72;;;1.90;100.00
71465;BME280;59274;49.874;9.154;2023-04-26T02:44:49;100492.69;;;1.85;100.00
71465;BME280;59274;49.874;9.154;2023-04-26T02:47:14;100504.97;;;1.86;100.00
71465;BME280;59274;49.874;9.154;2023-04-26T02:49:40;100490.78;;;1.77;100.00
71465;BME280;59274;49.874;9.154;2023-04-26T02:52:06;100490.94;;;1.80;100.00
71465;BME280;59274;49.874;9.154;2023-04-26T02:54:31;100500.34;;;1.78;100.00
71465;BME280;59274;49.874;9.154;2023-04-26T02:56:57;100487.25;;;1.68;100.00
71465;BME280;59274;49.874;9.154;2023-04-26T02:59:23;100493.34;;;1.60;100.00
71465;BME280;59274;49.874;9.154;2023-04-26T03:01:48;100485.31;;;1.60;100.00
71465;BME280;59274;49.874;9.154;2023-04-26T03:04:14;100488.84;;;1.69;100.00
71465;BME280;59274;49.874;9.154;2023-04-26T03:06:41;100490.50;;;1.56;100.00
71465;BME280;59274;49.874;9.154;2023-04-26T03:09:07;100490.31;;;1.52;100.00
71465;BME280;59274;49.874;9.154;2023-04-26T03:11:32;100493.63;;;1.58;100.00
71465;BME280;59274;49.874;9.154;2023-04-26T03:13:57;100483.19;;;1.48;100.00
71465;BME280;59274;49.874;9.154;2023-04-26T03:16:23;100491.66;;;1.41;100.00
71465;BME280;59274;49.874;9.154;2023-04-26T03:18:49;100489.16;;;1.45;100.00
71465;BME280;59274;49.874;9.154;2023-04-26T03:21:14;100490.72;;;1.46;100.00
71465;BME280;59274;49.874;9.154;2023-04-26T03:23:40;100492.00;;;1.48;100.00
71465;BME280;59274;49.874;9.154;2023-04-26T03:26:05;100498.25;;;1.44;100.00
71465;BME280;59274;49.874;9.154;2023-04-26T03:28:31;100496.38;;;1.44;100.00
71465;BME280;59274;49.874;9.154;2023-04-26T03:30:56;100493.53;;;1.41;100.00
71465;BME280;59274;49.874;9.154;2023-04-26T03:33:21;100494.25;;;1.33;100.00
71465;BME280;59274;49.874;9.154;2023-04-26T03:35:47;100485.31;;;1.37;100.00
71465;BME280;59274;49.874;9.154;2023-04-26T03:38:12;100490.59;;;1.29;100.00
71465;BME280;59274;49.874;9.154;2023-04-26T03:40:38;100491.38;;;1.29;100.00
71465;BME280;59274;49.874;9.154;2023-04-26T03:43:03;100486.03;;;1.29;100.00
71465;BME280;59274;49.874;9.154;2023-04-26T03:45:29;100490.59;;;1.29;100.00
71465;BME280;59274;49.874;9.154;2023-04-26T03:47:54;100490.59;;;1.29;100.00
71465;BME280;59274;49.874;9.154;2023-04-26T03:50:21;100494.50;;;1.23;100.00
71465;BME280;59274;49.874;9.154;2023-04-26T03:52:46;100489.75;;;1.20;100.00
71465;BME280;59274;49.874;9.154;2023-04-26T03:55:12;100495.03;;;1.11;100.00
71465;BME280;59274;49.874;9.154;2023-04-26T03:57:37;100493.53;;;1.18;100.00
71465;BME280;59274;49.874;9.154;2023-04-26T04:00:04;100493.53;;;1.18;100.00
71465;BME280;59274;49.874;9.154;2023-04-26T04:02:39;100492.84;;;1.13;100.00
71465;BME280;59274;49.874;9.154;2023-04-26T04:05:05;100486.88;;;1.16;100.00
71465;BME280;59274;49.874;9.154;2023-04-26T04:07:31;100487.81;;;1.11;100.00
71465;BME280;59274;49.874;9.154;2023-04-26T04:09:59;100491.28;;;1.12;100.00
71465;BME280;59274;49.874;9.154;2023-04-26T04:12:25;100500.38;;;1.11;100.00
71465;BME280;59274;49.874;9.154;2023-04-26T04:14:51;100492.53;;;1.14;100.00
71465;BME280;59274;49.874;9.154;2023-04-26T04:17:17;100501.34;;;1.15;100.00
71465;BME280;59274;49.874;9.154;2023-04-26T04:19:42;100497.41;;;1.12;100.00
71465;BME280;59274;49.874;9.154;2023-04-26T04:22:09;100493.31;;;1.15;100.00
71465;BME280;59274;49.874;9.154;2023-04-26T04:24:34;100494.75;;;1.12;100.00
71465;BME280;59274;49.874;9.154;2023-04-26T04:27:00;100490.03;;;0.96;100.00
71465;BME280;59274;49.874;9.154;2023-04-26T04:29:25;100481.00;;;1.05;100.00
71465;BME280;59274;49.874;9.154;2023-04-26T04:31:51;100489.44;;;0.99;100.00
71465;BME280;59274;49.874;9.154;2023-04-26T04:34:16;100499.22;;;1.03;100.00
71465;BME280;59274;49.874;9.154;2023-04-26T04:36:41;100498.78;;;1.10;100.00
71465;BME280;59274;49.874;9.154;2023-04-26T04:39:07;100494.97;;;1.02;100.00
71465;BME280;59274;49.874;9.154;2023-04-26T04:41:37;100500.59;;;1.01;100.00
71465;BME280;59274;49.874;9.154;2023-04-26T04:44:04;100505.16;;;1.00;100.00
71465;BME280;59274;49.874;9.154;2023-04-26T04:46:29;100507.31;;;1.12;100.00
71465;BME280;59274;49.874;9.154;2023-04-26T04:48:55;100513.03;;;1.19;100.00
71465;BME280;59274;49.874;9.154;2023-04-26T04:51:20;100510.72;;;1.26;100.00
71465;BME280;59274;49.874;9.154;2023-04-26T04:53:45;100510.31;;;1.33;100.00
71465;BME280;59274;49.874;9.154;2023-04-26T04:56:11;100510.56;;;1.45;100.00
71465;BME280;59274;49.874;9.154;2023-04-26T04:58:36;100514.38;;;1.52;100.00
71465;BME280;59274;49.874;9.154;2023-04-26T05:01:02;100513.53;;;1.66;100.00
71465;BME280;59274;49.874;9.154;2023-04-26T05:03:27;100520.03;;;1.73;100.00
71465;BME280;59274;49.874;9.154;2023-04-26T05:05:53;100524.44;;;1.78;100.00
71465;BME280;59274;49.874;9.154;2023-04-26T05:08:21;100536.16;;;1.82;100.00
71465;BME280;59274;49.874;9.154;2023-04-26T05:10:47;100532.91;;;1.93;100.00
71465;BME280;59274;49.874;9.154;2023-04-26T05:13:12;100543.50;;;1.99;100.00
71465;BME280;59274;49.874;9.154;2023-04-26T05:15:37;100544.94;;;2.05;100.00
71465;BME280;59274;49.874;9.154;2023-04-26T05:18:03;100549.38;;;2.09;100.00
71465;BME280;59274;49.874;9.154;2023-04-26T05:20:28;100546.09;;;2.21;100.00
71465;BME280;59274;49.874;9.154;2023-04-26T05:22:54;100549.38;;;2.40;100.00
71465;BME280;59274;49.874;9.154;2023-04-26T05:25:21;100555.53;;;2.49;100.00
71465;BME280;59274;49.874;9.154;2023-04-26T05:27:46;100552.88;;;2.58;100.00
71465;BME280;59274;49.874;9.154;2023-04-26T05:30:12;100559.22;;;2.70;100.00
71465;BME280;59274;49.874;9.154;2023-04-26T05:32:38;100554.53;;;2.85;100.00
71465;BME280;59274;49.874;9.154;2023-04-26T05:35:03;100566.69;;;2.99;100.00
71465;BME280;59274;49.874;9.154;2023-04-26T05:37:29;100566.56;;;3.13;100.00
71465;BME280;59274;49.874;9.154;2023-04-26T05:39:54;100567.84;;;3.15;100.00
71465;BME280;59274;49.874;9.154;2023-04-26T05:42:20;100565.31;;;3.28;100.00
71465;BME280;59274;49.874;9.154;2023-04-26T05:44:45;100557.91;;;3.33;100.00
71465;BME280;59274;49.874;9.154;2023-04-26T05:47:10;100570.22;;;3.34;100.00
71465;BME280;59274;49.874;9.154;2023-04-26T05:49:36;100574.78;;;3.42;100.00
71465;BME280;59274;49.874;9.154;2023-04-26T05:52:01;100575.28;;;3.44;100.00
71465;BME280;59274;49.874;9.154;2023-04-26T05:54:28;100570.84;;;3.57;100.00
71465;BME280;59274;49.874;9.154;2023-04-26T05:56:56;100575.28;;;3.62;100.00
71465;BME280;59274;49.874;9.154;2023-04-26T05:59:21;100578.91;;;3.74;100.00
71465;BME280;59274;49.874;9.154;2023-04-26T06:02:05;100576.03;;;3.88;100.00
71465;BME280;59274;49.874;9.154;2023-04-26T06:04:31;100572.69;;;3.91;100.00
71465;BME280;59274;49.874;9.154;2023-04-26T06:06:56;100568.75;;;3.97;100.00
71465;BME280;59274;49.874;9.154;2023-04-26T06:09:22;100573.31;;;4.05;100.00
71465;BME280;59274;49.874;9.154;2023-04-26T06:11:47;100573.59;;;4.21;100.00
71465;BME280;59274;49.874;9.154;2023-04-26T06:14:13;100569.94;;;4.25;100.00
71465;BME280;59274;49.874;9.154;2023-04-26T06:16:38;100579.41;;;4.31;100.00
71465;BME280;59274;49.874;9.154;2023-04-26T06:19:03;100574.31;;;4.39;100.00
71465;BME280;59274;49.874;9.154;2023-04-26T06:21:29;100580.53;;;4.30;100.00
71465;BME280;59274;49.874;9.154;2023-04-26T06:23:55;100589.34;;;4.40;100.00
71465;BME280;59274;49.874;9.154;2023-04-26T06:26:20;100584.06;;;4.60;100.00
71465;BME280;59274;49.874;9.154;2023-04-26T06:28:46;100587.63;;;4.73;100.00
71465;BME280;59274;49.874;9.154;2023-04-26T06:31:11;100588.25;;;4.70;100.00
71465;BME280;59274;49.874;9.154;2023-04-26T06:33:37;100589.50;;;4.81;100.00
71465;BME280;59274;49.874;9.154;2023-04-26T06:36:02;100595.50;;;4.78;100.00
71465;BME280;59274;49.874;9.154;2023-04-26T06:38:28;100594.94;;;4.93;100.00
71465;BME280;59274;49.874;9.154;2023-04-26T06:40:53;100588.53;;;5.06;100.00
71465;BME280;59274;49.874;9.154;2023-04-26T06:43:19;100596.84;;;5.22;100.00
71465;BME280;59274;49.874;9.154;2023-04-26T06:45:44;100595.16;;;5.38;100.00
71465;BME280;59274;49.874;9.154;2023-04-26T06:48:10;100593.63;;;5.49;100.00
71465;BME280;59274;49.874;9.154;2023-04-26T06:50:38;100599.75;;;5.59;100.00
71465;BME280;59274;49.874;9.154;2023-04-26T06:53:06;100590.59;;;5.72;100.00
71465;BME280;59274;49.874;9.154;2023-04-26T06:55:32;100587.31;;;5.66;100.00
71465;BME280;59274;49.874;9.154;2023-04-26T06:57:58;100585.75;;;5.65;97.88
71465;BME280;59274;49.874;9.154;2023-04-26T07:00:23;100594.41;;;5.50;98.18
71465;BME280;59274;49.874;9.154;2023-04-26T07:02:49;100594.94;;;5.64;96.54
71465;BME280;59274;49.874;9.154;2023-04-26T07:05:14;100593.06;;;5.77;95.34
71465;BME280;59274;49.874;9.154;2023-04-26T07:07:39;100591.13;;;5.65;94.64
71465;BME280;59274;49.874;9.154;2023-04-26T07:10:06;100591.88;;;5.86;93.42
71465;BME280;59274;49.874;9.154;2023-04-26T07:12:32;100585.69;;;6.07;93.39
71465;BME280;59274;49.874;9.154;2023-04-26T07:14:57;100591.72;;;6.37;92.32
71465;BME280;59274;49.874;9.154;2023-04-26T07:17:23;100590.59;;;6.38;87.51
71465;BME280;59274;49.874;9.154;2023-04-26T07:19:48;100583.16;;;6.47;87.00
71465;BME280;59274;49.874;9.154;2023-04-26T07:22:14;100581.28;;;6.59;86.46
71465;BME280;59274;49.874;9.154;2023-04-26T07:24:39;100581.53;;;6.66;87.72
71465;BME280;59274;49.874;9.154;2023-04-26T07:27:04;100588.94;;;6.82;87.20
71465;BME280;59274;49.874;9.154;2023-04-26T07:29:30;100588.38;;;6.88;84.13
71465;BME280;59274;49.874;9.154;2023-04-26T07:31:55;100590.41;;;6.79;84.43
71465;BME280;59274;49.874;9.154;2023-04-26T07:34:21;100578.81;;;6.91;87.08
71465;BME280;59274;49.874;9.154;2023-04-26T07:36:46;100585.75;;;7.04;84.28
71465;BME280;59274;49.874;9.154;2023-04-26T07:39:13;100577.09;;;7.11;82.87
71465;BME280;59274;49.874;9.154;2023-04-26T07:41:39;100582.03;;;7.21;82.21
71465;BME280;59274;49.874;9.154;2023-04-26T07:44:05;100584.50;;;7.14;82.87
71465;BME280;59274;49.874;9.154;2023-04-26T07:46:32;100577.03;;;7.35;84.67
71465;BME280;59274;49.874;9.154;2023-04-26T07:48:58;100578.03;;;7.42;82.76
71465;BME280;59274;49.874;9.154;2023-04-26T07:51:23;100580.06;;;7.45;79.35
71465;BME280;59274;49.874;9.154;2023-04-26T07:53:48;100571.91;;;7.58;81.73
71465;BME280;59274;49.874;9.154;2023-04-26T07:56:14;100578.31;;;7.65;81.01
71465;BME280;59274;49.874;9.154;2023-04-26T07:58:40;100578.91;;;7.59;80.47
71465;BME280;59274;49.874;9.154;2023-04-26T08:01:06;100575.81;;;7.72;79.24
71465;BME280;59274;49.874;9.154;2023-04-26T08:03:32;100573.88;;;7.73;79.16
71465;BME280;59274;49.874;9.154;2023-04-26T08:05:57;100577.50;;;7.93;78.61
71465;BME280;59274;49.874;9.154;2023-04-26T08:08:26;100584.44;;;8.06;77.64
71465;BME280;59274;49.874;9.154;2023-04-26T08:10:52;100588.09;;;8.13;77.28
71465;BME280;59274;49.874;9.154;2023-04-26T08:13:17;100592.91;;;8.20;75.42
71465;BME280;59274;49.874;9.154;2023-04-26T08:15:43;100593.81;;;8.24;73.91
71465;BME280;59274;49.874;9.154;2023-04-26T08:18:08;100582.53;;;8.22;74.01
71465;BME280;59274;49.874;9.154;2023-04-26T08:20:34;100580.25;;;8.08;72.27
71465;BME280;59274;49.874;9.154;2023-04-26T08:22:59;100585.06;;;8.15;77.14
71465;BME280;59274;49.874;9.154;2023-04-26T08:25:25;100586.22;;;8.30;75.43
71465;BME280;59274;49.874;9.154;2023-04-26T08:27:50;100591.06;;;8.52;73.55
71465;BME280;59274;49.874;9.154;2023-04-26T08:30:17;100586.41;;;8.68;72.23
71465;BME280;59274;49.874;9.154;2023-04-26T08:32:43;100586.34;;;8.64;72.36
71465;BME280;59274;49.874;9.154;2023-04-26T08:35:10;100584.66;;;8.76;72.86
71465;BME280;59274;49.874;9.154;2023-04-26T08:37:35;100582.66;;;8.73;73.71
71465;BME280;59274;49.874;9.154;2023-04-26T08:40:03;100583.81;;;8.72;72.86
71465;BME280;59274;49.874;9.154;2023-04-26T08:42:28;100590.88;;;8.76;73.53
71465;BME280;59274;49.874;9.154;2023-04-26T08:44:59;100583.63;;;8.80;73.54
71465;BME280;59274;49.874;9.154;2023-04-26T08:47:39;100585.66;;;9.02;68.78
71465;BME280;59274;49.874;9.154;2023-04-26T08:50:10;100587.41;;;9.11;68.14
71465;BME280;59274;49.874;9.154;2023-04-26T08:52:37;100592.81;;;9.11;67.40
71465;BME280;59274;49.874;9.154;2023-04-26T08:55:06;100592.75;;;9.07;67.12
71465;BME280;59274;49.874;9.154;2023-04-26T08:57:32;100577.75;;;8.94;66.28
71465;BME280;59274;49.874;9.154;2023-04-26T08:59:58;100580.25;;;9.02;68.42
71465;BME280;59274;49.874;9.154;2023-04-26T09:02:23;100577.75;;;8.94;66.80
71465;BME280;59274;49.874;9.154;2023-04-26T09:04:49;100572.56;;;9.04;67.03
71465;BME280;59274;49.874;9.154;2023-04-26T09:07:22;100571.53;;;9.28;65.68
71465;BME280;59274;49.874;9.154;2023-04-26T09:09:52;100572.34;;;9.48;64.23
71465;BME280;59274;49.874;9.154;2023-04-26T09:12:19;100567.75;;;9.52;62.00
71465;BME280;59274;49.874;9.154;2023-04-26T09:14:46;100552.72;;;9.55;62.47
71465;BME280;59274;49.874;9.154;2023-04-26T09:17:30;100559.91;;;9.66;60.78
71465;BME280;59274;49.874;9.154;2023-04-26T09:19:57;100568.19;;;9.54;57.81
71465;BME280;59274;49.874;9.154;2023-04-26T09:22:34;100567.97;;;9.63;53.07
71465;BME280;59274;49.874;9.154;2023-04-26T09:25:03;100560.03;;;9.73;56.49
71465;BME280;59274;49.874;9.154;2023-04-26T09:27:40;100553.59;;;10.01;57.81
71465;BME280;59274;49.874;9.154;2023-04-26T09:30:12;100557.09;;;10.20;56.29
71465;BME280;59274;49.874;9.154;2023-04-26T09:35:39;100553.81;;;10.57;56.63
71465;BME280;59274;49.874;9.154;2023-04-26T09:38:13;100550.00;;;10.62;56.08
71465;BME280;59274;49.874;9.154;2023-04-26T09:40:45;100555.75;;;10.56;56.35
71465;BME280;59274;49.874;9.154;2023-04-26T09:43:19;100558.78;;;10.51;56.10
71465;BME280;59274;49.874;9.154;2023-04-26T09:48:25;100564.28;;;10.13;57.26
71465;BME280;59274;49.874;9.154;2023-04-26T09:50:54;100560.16;;;10.19;56.75
71465;BME280;59274;49.874;9.154;2023-04-26T09:55:53;100554.56;;;10.12;56.03
71465;BME280;59274;49.874;9.154;2023-04-26T09:58:19;100554.81;;;10.23;55.53
71465;BME280;59274;49.874;9.154;2023-04-26T10:00:45;100566.22;;;10.12;56.85
71465;BME280;59274;49.874;9.154;2023-04-26T10:03:15;100553.59;;;10.20;57.51
71465;BME280;59274;49.874;9.154;2023-04-26T10:05:42;100553.88;;;10.38;55.78
71465;BME280;59274;49.874;9.154;2023-04-26T10:08:07;100558.16;;;10.62;54.50
71465;BME280;59274;49.874;9.154;2023-04-26T10:10:33;100550.19;;;10.72;54.13
71465;BME280;59274;49.874;9.154;2023-04-26T10:12:59;100547.72;;;10.90;55.61
71465;BME280;59274;49.874;9.154;2023-04-26T10:15:25;100547.84;;;11.27;54.12
71465;BME280;59274;49.874;9.154;2023-04-26T10:17:50;100543.59;;;11.29;52.00
71465;BME280;59274;49.874;9.154;2023-04-26T10:20:17;100544.41;;;11.67;52.72
71465;BME280;59274;49.874;9.154;2023-04-26T10:22:50;100539.75;;;11.67;49.72
71465;BME280;59274;49.874;9.154;2023-04-26T10:25:20;100541.91;;;11.51;50.87
71465;BME280;59274;49.874;9.154;2023-04-26T10:27:46;100540.13;;;11.66;53.24
71465;BME280;59274;49.874;9.154;2023-04-26T10:30:16;100533.88;;;11.62;49.43
71465;BME280;59274;49.874;9.154;2023-04-26T10:35:17;100522.31;;;11.35;51.14
71465;BME280;59274;49.874;9.154;2023-04-26T10:40:26;100522.13;;;11.21;51.17
71465;BME280;59274;49.874;9.154;2023-04-26T10:45:36;100522.66;;;11.33;49.36
71465;BME280;59274;49.874;9.154;2023-04-26T10:48:29;100517.06;;;11.53;48.84
71465;BME280;59274;49.874;9.154;2023-04-26T10:53:33;100507.22;;;12.15;49.78
71465;BME280;59274;49.874;9.154;2023-04-26T10:58:49;100507.81;;;12.38;47.34
71465;BME280;59274;49.874;9.154;2023-04-26T11:01:31;100518.03;;;12.52;47.26
71465;BME280;59274;49.874;9.154;2023-04-26T11:06:26;100515.31;;;12.04;47.12
71465;BME280;59274;49.874;9.154;2023-04-26T11:08:54;100509.66;;;11.87;47.69
71465;BME280;59274;49.874;9.154;2023-04-26T11:11:24;100504.16;;;12.20;47.06
71465;BME280;59274;49.874;9.154;2023-04-26T11:13:50;100501.16;;;12.32;47.17
71465;BME280;59274;49.874;9.154;2023-04-26T11:16:16;100498.03;;;11.86;47.74
71465;BME280;59274;49.874;9.154;2023-04-26T11:18:46;100490.94;;;11.78;47.39
71465;BME280;59274;49.874;9.154;2023-04-26T11:21:12;100481.41;;;11.98;51.02
71465;BME280;59274;49.874;9.154;2023-04-26T11:23:41;100488.31;;;12.36;47.99
71465;BME280;59274;49.874;9.154;2023-04-26T11:26:07;100477.09;;;13.07;49.31
71465;BME280;59274;49.874;9.154;2023-04-26T11:28:37;100483.72;;;13.06;45.13
71465;BME280;59274;49.874;9.154;2023-04-26T11:31:04;100483.13;;;12.72;44.20
71465;BME280;59274;49.874;9.154;2023-04-26T11:33:31;100477.66;;;12.68;45.22
71465;BME280;59274;49.874;9.154;2023-04-26T11:35:58;100482.31;;;12.64;45.39
71465;BME280;59274;49.874;9.154;2023-04-26T11:38:25;100475.34;;;12.70;44.40
71465;BME280;59274;49.874;9.154;2023-04-26T11:40:55;100479.84;;;12.45;46.22
71465;BME280;59274;49.874;9.154;2023-04-26T11:43:21;100466.53;;;12.36;46.90
71465;BME280;59274;49.874;9.154;2023-04-26T11:45:47;100481.44;;;12.53;46.44
71465;BME280;59274;49.874;9.154;2023-04-26T11:48:13;100475.50;;;12.37;44.22
71465;BME280;59274;49.874;9.154;2023-04-26T11:50:39;100467.50;;;12.65;43.62
71465;BME280;59274;49.874;9.154;2023-04-26T11:53:07;100467.13;;;12.12;46.26
71465;BME280;59274;49.874;9.154;2023-04-26T11:55:34;100465.06;;;12.46;48.53
71465;BME280;59274;49.874;9.154;2023-04-26T11:58:01;100459.69;;;12.60;45.68
71465;BME280;59274;49.874;9.154;2023-04-26T12:00:33;100457.78;;;12.64;43.28
71465;BME280;59274;49.874;9.154;2023-04-26T12:03:04;100452.44;;;12.82;42.76
71465;BME280;59274;49.874;9.154;2023-04-26T12:05:29;100450.19;;;13.02;43.43
71465;BME280;59274;49.874;9.154;2023-04-26T12:07:57;100450.75;;;12.60;44.05
71465;BME280;59274;49.874;9.154;2023-04-26T12:10:25;100448.19;;;12.95;44.27
71465;BME280;59274;49.874;9.154;2023-04-26T12:12:53;100453.53;;;12.74;45.23
71465;BME280;59274;49.874;9.154;2023-04-26T12:15:27;100453.63;;;12.88;45.04
71465;BME280;59274;49.874;9.154;2023-04-26T12:17:53;100448.34;;;12.51;45.06
71465;BME280;59274;49.874;9.154;2023-04-26T12:20:25;100444.88;;;12.03;45.09
71465;BME280;59274;49.874;9.154;2023-04-26T12:23:07;100446.03;;;12.49;45.02
71465;BME280;59274;49.874;9.154;2023-04-26T12:25:33;100445.81;;;12.21;45.22
71465;BME280;59274;49.874;9.154;2023-04-26T12:28:01;100437.31;;;11.82;45.64
71465;BME280;59274;49.874;9.154;2023-04-26T12:30:28;100432.78;;;11.93;45.44
71465;BME280;59274;49.874;9.154;2023-04-26T12:32:54;100434.22;;;11.47;45.93
71465;BME280;59274;49.874;9.154;2023-04-26T12:35:21;100439.44;;;11.99;45.15
71465;BME280;59274;49.874;9.154;2023-04-26T12:37:46;100437.44;;;12.47;45.03
71465;BME280;59274;49.874;9.154;2023-04-26T12:40:13;100427.22;;;13.06;44.65
71465;BME280;59274;49.874;9.154;2023-04-26T12:42:40;100427.84;;;12.71;43.72
71465;BME280;59274;49.874;9.154;2023-04-26T12:45:06;100431.06;;;12.94;43.54
71465;BME280;59274;49.874;9.154;2023-04-26T12:47:32;100433.91;;;13.16;42.18
71465;BME280;59274;49.874;9.154;2023-04-26T12:49:57;100431.16;;;12.40;44.38
71465;BME280;59274;49.874;9.154;2023-04-26T12:52:26;100428.91;;;12.52;45.53
71465;BME280;59274;49.874;9.154;2023-04-26T12:54:52;100417.88;;;13.11;45.18
71465;BME280;59274;49.874;9.154;2023-04-26T12:57:18;100433.25;;;13.65;43.33
71465;BME280;59274;49.874;9.154;2023-04-26T12:59:45;100420.81;;;13.99;44.07
71465;BME280;59274;49.874;9.154;2023-04-26T13:02:10;100422.34;;;14.46;41.00
71465;BME280;59274;49.874;9.154;2023-04-26T13:04:36;100423.50;;;14.35;38.73
71465;BME280;59274;49.874;9.154;2023-04-26T13:07:06;100420.03;;;13.78;39.44
71465;BME280;59274;49.874;9.154;2023-04-26T13:09:31;100421.13;;;13.34;39.93
71465;BME280;59274;49.874;9.154;2023-04-26T13:11:56;100416.47;;;13.42;41.25
71465;BME280;59274;49.874;9.154;2023-04-26T13:14:22;100419.44;;;13.12;39.22